»·PEaware :: BAE412 KHLN-KBOI

BAE412 :: KHLN-KBOI

FLIGHT INFORMATION

Flight Status: Arrived
Operator: Unknown
More flights by this operator :: More flights under this callsign
Pilot: Matthew M. (8235)
Aircraft: BRITISH AERO BAe-146-200 QUIET TRADER
(B462)
More flights by this aircraft type
Origin: KHLN Helena Regl
United States
Destination: KBOI Boise Air Terminal/Gowen
United States
More flights between these airports :: More routes between these airports
Route: +HLN4 HLN LKT J7 BOI
File this flight plan on PilotEdge
Remarks: RMK / SIMBRIEF
Altitude:
(Current/Filed)
30,000ft
Speed:
(Current/Filed)
411kts
Departed: 23-Apr-20 05:10 PM
Arrived: 23-Apr-20 06:08 PM
Distance/Time
Traveled:
256nm/0:57
Distance/Time
To Go:
Arrived

Flight Plot

Page will automatically refresh every two minutes.


Map Options




Map Legend


Flown Route
Filed Route
Departure Airport
Arrival Airport
Navaid (VOR, NDB)
Fix

Horizontal Profiles

Position Reports

Time Latitude Longitude Heading Altitude Ground
Speed
23-Apr-20 16:22 46.610152 -111.989784 9 3885ft 0kts
23-Apr-20 16:23 46.610152 -111.989784 9 3885ft 0kts
23-Apr-20 16:24 46.610152 -111.989784 9 3885ft 0kts
23-Apr-20 16:25 46.610152 -111.989784 9 3885ft 0kts
23-Apr-20 16:27 46.610152 -111.989784 9 3885ft 0kts
23-Apr-20 16:28 46.610152 -111.989784 9 3885ft 0kts
23-Apr-20 16:29 46.610152 -111.989784 9 3885ft 0kts
23-Apr-20 16:30 46.610152 -111.989784 9 3885ft 0kts
23-Apr-20 16:31 46.610152 -111.989784 9 3885ft 0kts
23-Apr-20 16:32 46.610152 -111.989784 9 3885ft 0kts
23-Apr-20 16:33 46.610152 -111.989784 9 3885ft 0kts
23-Apr-20 16:34 46.610152 -111.989784 9 3885ft 0kts
23-Apr-20 16:35 46.610152 -111.989784 9 3885ft 0kts
23-Apr-20 16:36 46.610152 -111.989784 9 3885ft 0kts
23-Apr-20 16:37 46.610152 -111.989784 9 3885ft 0kts
23-Apr-20 16:38 46.610152 -111.989784 9 3885ft 0kts
23-Apr-20 16:39 46.610152 -111.989784 9 3885ft 0kts
23-Apr-20 16:40 46.610152 -111.989784 9 3885ft 0kts
23-Apr-20 16:41 46.610152 -111.989784 9 3885ft 0kts
23-Apr-20 16:41 46.610152 -111.989784 9 3885ft 0kts
23-Apr-20 16:43 46.610152 -111.989784 9 3885ft 0kts
23-Apr-20 16:44 46.610152 -111.989784 9 3885ft 0kts
23-Apr-20 16:44 46.610152 -111.989784 9 3885ft 0kts
23-Apr-20 16:45 46.610152 -111.989784 9 3885ft 0kts
23-Apr-20 16:47 46.610152 -111.989784 9 3885ft 0kts
23-Apr-20 16:48 46.610152 -111.989784 9 3885ft 0kts
23-Apr-20 16:48 46.610152 -111.989784 9 3885ft 0kts
23-Apr-20 16:49 46.610152 -111.989784 9 3885ft 0kts
23-Apr-20 16:50 46.610152 -111.989784 9 3885ft 0kts
23-Apr-20 16:51 46.610152 -111.989784 9 3885ft 0kts
23-Apr-20 16:52 46.610152 -111.989784 9 3885ft 0kts
23-Apr-20 16:53 46.610152 -111.989784 9 3885ft 0kts
23-Apr-20 16:54 46.610152 -111.989784 9 3885ft 0kts
23-Apr-20 16:55 46.610152 -111.989784 9 3885ft 0kts
23-Apr-20 16:56 46.610152 -111.989784 9 3885ft 0kts
23-Apr-20 16:57 46.610152 -111.989784 9 3885ft 0kts
23-Apr-20 16:58 46.610152 -111.989784 9 3885ft 0kts
23-Apr-20 16:59 46.610152 -111.989784 9 3885ft 0kts
23-Apr-20 17:00 46.610152 -111.989784 9 3885ft 0kts
23-Apr-20 17:01 46.610152 -111.989784 9 3885ft 0kts
23-Apr-20 17:02 46.610066 -111.990403 199 3885ft 4kts
23-Apr-20 17:03 46.608326 -111.983490 100 3885ft 21kts
23-Apr-20 17:04 46.607054 -111.975156 103 3885ft 19kts
23-Apr-20 17:05 46.605823 -111.967711 102 3885ft 21kts
23-Apr-20 17:06 46.603955 -111.962731 191 3885ft 8kts
23-Apr-20 17:07 46.603762 -111.962787 193 3885ft 0kts
23-Apr-20 17:08 46.603201 -111.964172 283 3885ft 1kts
23-Apr-20 17:09 46.607158 -111.989611 283 4013ft 146kts
23-Apr-20 17:10 46.647390 -112.016191 14 6298ft 211kts
23-Apr-20 17:11 46.705372 -111.985370 18 8797ft 233kts
23-Apr-20 17:12 46.755022 -112.015971 277 11622ft 227kts
23-Apr-20 17:13 46.703701 -112.073316 176 12998ft 330kts
23-Apr-20 17:14 46.627408 -111.990066 139 15759ft 344kts
23-Apr-20 17:15 46.542390 -111.941696 185 18205ft 339kts
23-Apr-20 17:16 46.450472 -111.968270 213 20180ft 346kts
23-Apr-20 17:17 46.370049 -112.046851 220 22226ft 352kts
23-Apr-20 17:18 46.294065 -112.138272 225 24052ft 359kts
23-Apr-20 17:19 46.220376 -112.238012 228 25725ft 366kts
23-Apr-20 17:20 46.149247 -112.345076 235 27249ft 370kts
23-Apr-20 17:21 46.077449 -112.454184 229 28606ft 379kts
23-Apr-20 17:22 46.001259 -112.561275 229 29772ft 387kts
23-Apr-20 17:23 45.921221 -112.670167 229 30135ft 412kts
23-Apr-20 17:24 45.836286 -112.784547 230 30083ft 411kts
23-Apr-20 17:25 45.757302 -112.899125 234 30081ft 398kts
23-Apr-20 17:26 45.683263 -113.014965 236 30077ft 390kts
23-Apr-20 17:27 45.611415 -113.130088 237 30077ft 385kts
23-Apr-20 17:28 45.540881 -113.243659 237 30080ft 381kts
23-Apr-20 17:29 45.471067 -113.356482 238 30086ft 378kts
23-Apr-20 17:30 45.399460 -113.466533 232 30094ft 381kts
23-Apr-20 17:31 45.325545 -113.572832 238 30105ft 373kts
23-Apr-20 17:32 45.250225 -113.677629 232 30113ft 383kts
23-Apr-20 17:33 45.184067 -113.790803 244 30117ft 372kts
23-Apr-20 17:34 45.119851 -113.907977 240 30118ft 378kts
23-Apr-20 17:35 45.047649 -114.018395 235 30119ft 386kts
23-Apr-20 17:36 44.972320 -114.127329 236 30123ft 386kts
23-Apr-20 17:37 44.896679 -114.235286 232 30257ft 388kts
23-Apr-20 17:38 44.814989 -114.336158 234 30238ft 388kts
23-Apr-20 17:39 44.740246 -114.444269 237 30247ft 384kts
23-Apr-20 17:40 44.667830 -114.555570 237 30159ft 387kts
23-Apr-20 17:41 44.594951 -114.667010 237 30168ft 387kts
23-Apr-20 17:42 44.522257 -114.777733 237 30177ft 386kts
23-Apr-20 17:43 44.449119 -114.888716 237 30183ft 387kts
23-Apr-20 17:44 44.366951 -114.989563 228 29609ft 397kts
23-Apr-20 17:45 44.274849 -115.084695 232 28355ft 404kts
23-Apr-20 17:46 44.201034 -115.195897 239 27149ft 388kts
23-Apr-20 17:47 44.131096 -115.310426 239 25935ft 383kts
23-Apr-20 17:48 44.062597 -115.419504 237 24530ft 385kts
23-Apr-20 17:49 43.989273 -115.531192 235 22632ft 392kts
23-Apr-20 17:50 43.914451 -115.637638 232 20728ft 374kts
23-Apr-20 17:51 43.842056 -115.734730 230 18822ft 352kts
23-Apr-20 17:52 43.771644 -115.827023 232 16918ft 341kts
23-Apr-20 17:53 43.693764 -115.893976 184 15020ft 353kts
23-Apr-20 17:54 43.597157 -115.878235 173 12685ft 345kts
23-Apr-20 17:55 43.511301 -115.860513 173 10283ft 263kts
23-Apr-20 17:56 43.460950 -115.811348 114 9608ft 235kts
23-Apr-20 17:57 43.431239 -115.732902 145 9068ft 237kts
23-Apr-20 17:58 43.387488 -115.756818 278 8822ft 183kts
23-Apr-20 17:59 43.417251 -115.811588 312 7945ft 180kts
23-Apr-20 18:00 43.450013 -115.864634 294 7155ft 186kts
23-Apr-20 18:01 43.467695 -115.931476 290 7220ft 181kts
23-Apr-20 18:02 43.484147 -115.994130 291 7536ft 182kts
23-Apr-20 18:03 43.508721 -116.058922 296 6490ft 207kts
23-Apr-20 18:04 43.531317 -116.126605 297 4840ft 162kts
23-Apr-20 18:05 43.548410 -116.172935 297 3873ft 126kts
23-Apr-20 18:06 43.562771 -116.215036 298 2879ft 82kts
23-Apr-20 18:07 43.566305 -116.223188 2 2879ft 1kts
23-Apr-20 18:08 43.567555 -116.222546 99 2879ft 0kts
23-Apr-20 18:09 43.567555 -116.222546 99 2879ft 0kts
23-Apr-20 18:10 43.567555 -116.222546 99 2879ft 0kts

Navigation Log

Ident Type
Flight plan parsing failed, navigation log unavailable